2022年7月6日

时间 代码 天气 温度 能见度 天花板 METAR/SPECI
11:00 上午
V
72 °F 6¼ mi+ - 310° 310° 4 kt METAR LFCK 060900Z AUTO 31004KT 230V340 CAVOK 22/13 Q1024 NOSIG
10:30 上午
V
72 °F 6¼ mi+ - 290° 290° 6 kt METAR LFCK 060830Z AUTO 29006KT 260V330 CAVOK 22/13 Q1024 NOSIG
10:00 上午
V
70 °F 6¼ mi+ - 330° 330° 4 kt METAR LFCK 060800Z AUTO 33004KT 270V360 CAVOK 21/14 Q1024 NOSIG
9:30 上午
V
68 °F 6¼ mi+ - 330° 330° 3 kt METAR LFCK 060730Z AUTO 33003KT 280V360 CAVOK 20/13 Q1024 NOSIG
9:00 上午
V
68 °F 6¼ mi+ - Var Var 2 kt METAR LFCK 060700Z AUTO VRB02KT CAVOK 20/13 Q1024 NOSIG
8:30 上午
V
64 °F 6¼ mi+ - Var Var 3 kt METAR LFCK 060630Z AUTO VRB03KT CAVOK 18/14 Q1024 NOSIG
8:00 上午
V
63 °F 6¼ mi+ - Var Var 2 kt METAR LFCK 060600Z AUTO VRB02KT CAVOK 17/14 Q1024 NOSIG
7:30 上午
V
61 °F 6¼ mi+ - 050° 050° 3 kt METAR LFCK 060530Z AUTO 05003KT CAVOK 16/13 Q1024
7:00 上午
V
61 °F 6¼ mi+ - 180° 180° 4 kt METAR LFCK 060500Z AUTO 18004KT CAVOK 16/13 Q1024
6:30 上午
V
59 °F 6¼ mi+ - 080° 080° 2 kt METAR LFCK 060430Z AUTO 08002KT CAVOK 15/12 Q1023
6:00 上午
V
59 °F 6¼ mi+ - 050° 050° 3 kt METAR LFCK 060400Z AUTO 05003KT CAVOK 15/12 Q1023
5:30 上午
V
59 °F 6¼ mi+ - 200° 200° 3 kt METAR LFCK 060330Z AUTO 20003KT CAVOK 15/13 Q1022
5:00 上午
V
61 °F 6¼ mi+ - 220° 220° 3 kt METAR LFCK 060300Z AUTO 22003KT CAVOK 16/13 Q1022
4:30 上午
V
61 °F 6¼ mi+ - Var 000° 0 kt METAR LFCK 060230Z AUTO 00000KT CAVOK 16/12 Q1022
4:00 上午
V
61 °F 6¼ mi+ - Var 000° 0 kt METAR LFCK 060200Z AUTO 00000KT CAVOK 16/13 Q1022
3:30 上午
V
64 °F 6¼ mi+ - 230° 230° 2 kt METAR LFCK 060130Z AUTO 23002KT CAVOK 18/13 Q1022
3:00 上午
V
64 °F 6¼ mi+ - Var 000° 0 kt METAR LFCK 060100Z AUTO 00000KT CAVOK 18/13 Q1023
2:30 上午
V
64 °F 6¼ mi+ - 040° 040° 2 kt METAR LFCK 060030Z AUTO 04002KT CAVOK 18/14 Q1023
2:00 上午
V
66 °F 6¼ mi+ - Var Var 3 kt METAR LFCK 060000Z AUTO VRB03KT CAVOK 19/14 Q1023
1:30 上午
V
66 °F 6¼ mi+ - Var 000° 0 kt METAR LFCK 052330Z AUTO 00000KT CAVOK 19/14 Q1023
1:00 上午
V
66 °F 6¼ mi+ - Var Var 2 kt METAR LFCK 052300Z AUTO VRB02KT CAVOK 19/14 Q1023
12:30 上午
V
68 °F 6¼ mi+ - 250° 250° 3 kt METAR LFCK 052230Z AUTO 25003KT CAVOK 20/14 Q1023
12:00 上午
V
72 °F 6¼ mi+ - 240° 240° 3 kt METAR LFCK 052200Z AUTO 24003KT CAVOK 22/13 Q1023

2022年7月5日

时间 代码 天气 温度 能见度 天花板 METAR/SPECI
11:30 下午
V
73 °F 6¼ mi+ - 260° 260° 4 kt METAR LFCK 052130Z AUTO 26004KT CAVOK 23/13 Q1023
11:00 下午
V
73 °F 6¼ mi+ - Var Var 2 kt METAR LFCK 052100Z AUTO VRB02KT CAVOK 23/13 Q1022 NOSIG
10:30 下午
V
77 °F 6¼ mi+ - 280° 280° 6 kt METAR LFCK 052030Z AUTO 28006KT CAVOK 25/13 Q1022 NOSIG
10:00 下午
V
79 °F 6¼ mi+ - 300° 300° 7 kt METAR LFCK 052000Z AUTO 30007KT CAVOK 26/13 Q1022 NOSIG
9:30 下午
V
81 °F 6¼ mi+ - 290° 290° 8 kt METAR LFCK 051930Z AUTO 29008KT CAVOK 27/13 Q1021 NOSIG
9:00 下午
V
82 °F 6¼ mi+ - 290° 290° 11 kt METAR LFCK 051900Z AUTO 29011KT CAVOK 28/13 Q1021 NOSIG
8:30 下午
V
84 °F 6¼ mi+ - 290° 290° 13 kt METAR LFCK 051830Z AUTO 29013KT CAVOK 29/13 Q1021 NOSIG
8:00 下午
V
84 °F 6¼ mi+ - 280° 280° 14 kt METAR LFCK 051800Z AUTO 28014KT CAVOK 29/13 Q1021 NOSIG
7:30 下午
V
86 °F 6¼ mi+ - 290° 290° 12 kt METAR LFCK 051730Z AUTO 29012KT CAVOK 30/12 Q1020 NOSIG
7:00 下午
V
86 °F 6¼ mi+ - 280° 280° 13 kt METAR LFCK 051700Z AUTO 28013KT 240V310 CAVOK 30/13 Q1021 NOSIG
6:30 下午
V
86 °F 6¼ mi+ - 310° 310° 12 kt METAR LFCK 051630Z AUTO 31012KT 270V340 CAVOK 30/15 Q1020 NOSIG
6:00 下午
V
86 °F 6¼ mi+ - 300° 300° 15 kt METAR LFCK 051600Z AUTO 30015KT CAVOK 30/15 Q1020 NOSIG
5:30 下午
V
84 °F 6¼ mi+ - 300° 300° 13 kt METAR LFCK 051530Z AUTO 30013KT 280V340 CAVOK 29/16 Q1020 NOSIG
5:00 下午
V
86 °F 6¼ mi+ - 280° 280° 15 kt METAR LFCK 051500Z AUTO 28015KT CAVOK 30/15 Q1021 NOSIG
4:30 下午
V
86 °F 6¼ mi+ - 300° 300° 11 kt METAR LFCK 051430Z AUTO 30011KT 270V350 CAVOK 30/16 Q1021 NOSIG
4:00 下午
V
84 °F 6¼ mi+ - 320° 320° 11 kt METAR LFCK 051400Z AUTO 32011KT 290V350 CAVOK 29/16 Q1021 NOSIG
3:30 下午
V
84 °F 6¼ mi+ - 310° 310° 9 - 23 kt METAR LFCK 051330Z AUTO 31009G23KT 260V010 CAVOK 29/16 Q1021 NOSIG
3:00 下午
V
82 °F 6¼ mi+ - 300° 300° 10 kt METAR LFCK 051300Z AUTO 30010KT 260V340 CAVOK 28/16 Q1021 NOSIG
2:30 下午
V
81 °F 6¼ mi+ - 320° 320° 10 kt METAR LFCK 051230Z AUTO 32010KT 280V360 9999 SCT045 27/16 Q1022 NOSIG
2:00 下午
V
81 °F 6¼ mi+ - 300° 300° 7 kt METAR LFCK 051200Z AUTO 30007KT 250V360 9999 SCT040 27/16 Q1022 NOSIG
1:30 下午
V
81 °F 6¼ mi+ 3.900 ft 320° 320° 7 kt METAR LFCK 051130Z AUTO 32007KT 270V360 9999 BKN039/// 27/16 Q1022 NOSIG
1:00 下午
V
77 °F 6¼ mi+ - 300° 300° 7 kt METAR LFCK 051100Z AUTO 30007KT 260V350 9999 FEW033 25/16 Q1022 NOSIG
12:30 下午
V
77 °F 6¼ mi+ 3.200 ft 290° 290° 6 kt METAR LFCK 051030Z AUTO 29006KT 240V020 9999 BKN032 25/16 Q1023 NOSIG
12:00 下午
V
75 °F 6¼ mi+ - Var Var 3 kt METAR LFCK 051000Z AUTO VRB03KT 9999 SCT027 24/17 Q1023 NOSIG
11:30 上午
M
73 °F 6¼ mi+ 2.500 ft 260° 260° 5 kt METAR LFCK 050930Z AUTO 26005KT 200V330 9999 BKN025 23/17 Q1023 NOSIG
11:00 上午
M
72 °F 6¼ mi+ 2.200 ft 270° 270° 4 kt METAR LFCK 050900Z AUTO 27004KT 220V350 9999 OVC022 22/17 Q1023 NOSIG
10:30 上午
M
70 °F 6¼ mi+ 1.900 ft 280° 280° 4 kt METAR LFCK 050830Z AUTO 28004KT 220V330 9999 BKN019 21/17 Q1023 NOSIG
10:00 上午
M
70 °F 6¼ mi+ 1.700 ft Var Var 3 kt METAR LFCK 050800Z AUTO VRB03KT 9999 OVC017 21/16 Q1023 NOSIG
9:30 上午
M
68 °F 6¼ mi+ 1.700 ft 290° 290° 3 kt METAR LFCK 050730Z AUTO 29003KT 240V340 9999 OVC017 20/16 Q1023 NOSIG
9:00 上午
M
68 °F 6¼ mi+ 1.600 ft 310° 310° 3 kt METAR LFCK 050700Z AUTO 31003KT 280V350 9999 OVC016 20/16 Q1023 TEMPO BKN013
8:30 上午
M
68 °F 6¼ mi+ 1.900 ft 300° 300° 6 kt METAR LFCK 050630Z AUTO 30006KT 9999 OVC019 20/16 Q1023 TEMPO BKN013
8:00 上午
M
68 °F 6¼ mi+ 1.800 ft 280° 280° 4 kt METAR LFCK 050600Z AUTO 28004KT 250V310 9999 OVC018 20/17 Q1023 TEMPO BKN013
7:30 上午
M
66 °F 6¼ mi+ 1.900 ft Var Var 3 kt METAR LFCK 050530Z AUTO VRB03KT 9999 OVC019 19/17 Q1023 TEMPO BKN013
7:00 上午
M
64 °F 6¼ mi+ 2.000 ft Var Var 1 kt METAR LFCK 050500Z AUTO VRB01KT 9999 BKN020 18/16 Q1023
6:30 上午
V
64 °F 6¼ mi+ - 290° 290° 3 kt METAR LFCK 050430Z AUTO 29003KT 9999 FEW021 18/16 Q1023
6:00 上午
V
66 °F 6¼ mi+ - 280° 280° 3 kt METAR LFCK 050400Z AUTO 28003KT CAVOK 19/16 Q1022
5:30 上午
V
68 °F 6¼ mi+ - 270° 270° 4 kt METAR LFCK 050330Z AUTO 27004KT CAVOK 20/17 Q1022
5:00 上午
V
68 °F 6¼ mi+ - 280° 280° 4 kt METAR LFCK 050300Z AUTO 28004KT CAVOK 20/17 Q1022
4:30 上午
V
68 °F 6¼ mi+ 5.800 ft 280° 280° 4 kt METAR LFCK 050230Z AUTO 28004KT 9999 FEW047 OVC058 20/17 Q1022
4:00 上午
V
68 °F 6¼ mi+ 5.800 ft 270° 270° 5 kt METAR LFCK 050200Z AUTO 27005KT 9999 FEW046 OVC058 20/17 Q1022
3:30 上午
V
68 °F 6¼ mi+ 5.600 ft 270° 270° 5 kt METAR LFCK 050130Z AUTO 27005KT 9999 FEW031 OVC056 20/17 Q1022
3:00 上午
V
70 °F 6¼ mi+ 5.600 ft 280° 280° 6 kt METAR LFCK 050100Z AUTO 28006KT 9999 FEW031 OVC056 21/17 Q1022
2:30 上午
V
70 °F 6¼ mi+ - 280° 280° 7 kt METAR LFCK 050030Z AUTO 28007KT CAVOK 21/17 Q1022
2:00 上午
M
70 °F 6¼ mi+ 2.100 ft 270° 270° 7 kt METAR LFCK 050000Z AUTO 27007KT 9999 BKN021 OVC054 21/17 Q1022
1:30 上午
M
70 °F 6¼ mi+ 2.100 ft 270° 270° 9 kt METAR LFCK 042330Z AUTO 27009KT 9999 BKN021 OVC047 21/17 Q1022
1:00 上午
M
72 °F 6¼ mi+ 2.200 ft 260° 260° 10 kt METAR LFCK 042300Z AUTO 26010KT 9999 BKN022 BKN028 OVC044 22/17 Q1022
12:30 上午
V
72 °F 6¼ mi+ 4.300 ft 250° 250° 11 kt METAR LFCK 042230Z AUTO 25011KT 9999 SCT027 OVC043 22/17 Q1022
12:00 上午
V
72 °F 6¼ mi+ 4.400 ft 260° 260° 11 kt METAR LFCK 042200Z AUTO 26011KT 9999 OVC044 22/17 Q1022

2022年7月4日

时间 代码 天气 温度 能见度 天花板 METAR/SPECI
11:30 下午
V
73 °F 6¼ mi+ 4.300 ft 260° 260° 11 kt METAR LFCK 042130Z AUTO 26011KT 9999 BKN043 OVC050 23/17 Q1021
11:00 下午
V
75 °F 6¼ mi+ 4.500 ft 260° 260° 7 kt METAR LFCK 042100Z AUTO 26007KT 9999 BKN045 OVC054 24/17 Q1021 NOSIG
10:30 下午
V
77 °F 6¼ mi+ 4.400 ft 300° 300° 5 kt METAR LFCK 042030Z AUTO 30005KT 9999 OVC044 25/17 Q1021 NOSIG
10:00 下午
V
77 °F 6¼ mi+ 5.400 ft 300° 300° 7 kt METAR LFCK 042000Z AUTO 30007KT 9999 SCT042 BKN054 BKN110 25/16 Q1020 NOSIG
9:30 下午
V
77 °F 6¼ mi+ - 300° 300° 10 kt METAR LFCK 041930Z AUTO 30010KT CAVOK 25/16 Q1020 NOSIG
9:00 下午
V
79 °F 6¼ mi+ - 300° 300° 13 kt METAR LFCK 041900Z AUTO 30013KT CAVOK 26/16 Q1020 NOSIG
8:30 下午
V
79 °F 6¼ mi+ - 300° 300° 11 kt METAR LFCK 041830Z AUTO 30011KT CAVOK 26/17 Q1020 NOSIG
8:00 下午
V
79 °F 6¼ mi+ - 290° 290° 9 kt METAR LFCK 041800Z AUTO 29009KT CAVOK 26/17 Q1019 NOSIG
7:30 下午
V
79 °F 6¼ mi+ 4.900 ft 300° 300° 11 kt METAR LFCK 041730Z AUTO 30011KT 9999 OVC049 26/17 Q1019 NOSIG
7:00 下午
V
81 °F 6¼ mi+ 4.800 ft 300° 300° 11 kt METAR LFCK 041700Z AUTO 30011KT 9999 OVC048 27/17 Q1019 NOSIG
6:30 下午
V
81 °F 6¼ mi+ 4.500 ft 300° 300° 10 kt METAR LFCK 041630Z AUTO 30010KT 9999 OVC045 27/17 Q1019 NOSIG
6:00 下午
V
81 °F 6¼ mi+ 4.400 ft 290° 290° 10 kt METAR LFCK 041600Z AUTO 29010KT 260V330 9999 OVC044 27/17 Q1019 NOSIG
5:30 下午
V
82 °F 6¼ mi+ 4.400 ft 290° 290° 11 kt METAR LFCK 041530Z AUTO 29011KT 9999 BKN044 28/17 Q1019 NOSIG
5:00 下午
V
81 °F 6¼ mi+ 4.300 ft 300° 300° 9 kt METAR LFCK 041500Z AUTO 30009KT 270V340 9999 BKN043 27/16 Q1019 NOSIG
4:30 下午
V
81 °F 6¼ mi+ 4.200 ft 280° 280° 9 kt METAR LFCK 041430Z AUTO 28009KT 230V320 9999 BKN042 27/16 Q1020 NOSIG
4:00 下午
V
79 °F 6¼ mi+ - 300° 300° 8 kt METAR LFCK 041400Z AUTO 30008KT 250V350 9999 FEW039 26/16 Q1020 NOSIG
3:30 下午
V
79 °F 6¼ mi+ 3.600 ft 290° 290° 7 kt METAR LFCK 041330Z AUTO 29007KT 250V010 9999 BKN036 26/16 Q1020 NOSIG
3:00 下午
V
77 °F 6¼ mi+ 3.300 ft 280° 280° 7 kt METAR LFCK 041300Z AUTO 28007KT 230V310 9999 BKN033 25/16 Q1020 NOSIG
2:30 下午
M
73 °F 6¼ mi+ 2.900 ft 290° 290° 7 kt METAR LFCK 041230Z AUTO 29007KT 250V340 9999 BKN029 23/16 Q1021 NOSIG
2:00 下午
M
73 °F 6¼ mi+ 2.700 ft 340° 340° 7 kt METAR LFCK 041200Z AUTO 34007KT 290V020 9999 OVC027 23/16 Q1021 NOSIG
1:30 下午
M
73 °F 6¼ mi+ 2.800 ft 300° 300° 7 kt METAR LFCK 041130Z AUTO 30007KT 250V330 9999 BKN028 23/16 Q1021 NOSIG
1:00 下午
V
73 °F 6¼ mi+ - 300° 300° 6 kt METAR LFCK 041100Z AUTO 30006KT 250V360 9999 ////// 23/16 Q1021
较旧的数据

下载我们的应用程序

在您的手机和平板电脑上轻松访问所有航空天气。
有许多网站上没有的功能,如离线支持和个人机场列表。

Studio Eveline

Benalmádena
España

我们和第三方通过cookies跟踪您在我们网站上的上网行为。如果您继续,我们认为您同意我们的cookie政策。 了解更多